createdAt,value
2022-12-14T00:01:26.089Z,8.47
2022-12-14T00:03:53.953Z,8.63
2022-12-14T00:06:25.886Z,13.20
2022-12-14T00:08:54.227Z,11.00
2022-12-14T00:11:22.502Z,11.83
2022-12-14T00:13:57.553Z,11.10
2022-12-14T00:16:25.740Z,8.40
2022-12-14T00:18:55.816Z,9.17
2022-12-14T00:21:23.138Z,9.07
2022-12-14T00:23:51.160Z,9.67
2022-12-14T00:26:23.538Z,7.93
2022-12-14T00:29:16.581Z,6.93
2022-12-14T00:35:48.434Z,9.83
2022-12-14T00:39:01.768Z,9.20
2022-12-14T00:41:54.824Z,9.17
2022-12-14T00:44:35.621Z,10.93
2022-12-14T00:51:08.507Z,8.43
2022-12-14T00:57:47.375Z,8.20
2022-12-14T01:00:52.762Z,9.20
2022-12-14T01:03:27.482Z,8.70
2022-12-14T01:06:20.885Z,10.33
2022-12-14T01:09:06.168Z,7.93
2022-12-14T01:11:50.346Z,8.80
2022-12-14T01:14:41.235Z,7.10
2022-12-14T01:17:14.185Z,8.30
2022-12-14T01:23:01.756Z,8.67
2022-12-14T01:25:43.784Z,8.80
2022-12-14T01:28:15.247Z,12.33
2022-12-14T01:30:41.604Z,8.20
2022-12-14T01:33:07.943Z,6.57
2022-12-14T01:35:34.286Z,6.83
2022-12-14T01:38:00.770Z,9.53
2022-12-14T01:40:27.108Z,9.57
2022-12-14T01:42:53.499Z,9.13
2022-12-14T01:45:22.228Z,7.73
2022-12-14T01:47:57.136Z,8.50
2022-12-14T01:50:34.805Z,9.47
2022-12-14T01:53:08.173Z,10.73
2022-12-14T01:55:39.770Z,8.70
2022-12-14T01:58:16.857Z,10.30
2022-12-14T02:00:44.437Z,10.00
2022-12-14T02:03:17.681Z,8.83
2022-12-14T02:05:52.111Z,11.47
2022-12-14T02:08:19.765Z,8.57
2022-12-14T02:10:47.035Z,7.33
2022-12-14T02:13:22.618Z,9.87
2022-12-14T02:15:49.279Z,8.10
2022-12-14T02:18:22.051Z,11.37
2022-12-14T02:21:19.626Z,12.33
2022-12-14T02:24:31.765Z,8.80
2022-12-14T02:27:06.193Z,12.30
2022-12-14T02:29:51.383Z,7.50
2022-12-14T02:32:55.274Z,12.27
2022-12-14T02:35:34.608Z,9.73
2022-12-14T02:38:35.509Z,13.00
2022-12-14T02:41:40.264Z,7.30
2022-12-14T02:44:28.486Z,10.43
2022-12-14T02:47:06.338Z,10.80
2022-12-14T02:49:40.447Z,8.50
2022-12-14T02:52:12.400Z,10.57
2022-12-14T02:54:44.728Z,9.40
2022-12-14T02:57:17.511Z,11.07
2022-12-14T02:59:44.232Z,12.90
2022-12-14T03:02:13.321Z,10.53
2022-12-14T03:04:47.463Z,9.53
2022-12-14T03:07:48.575Z,10.23
2022-12-14T03:10:32.670Z,11.17
2022-12-14T03:13:25.381Z,8.47
2022-12-14T03:16:05.138Z,9.60
2022-12-14T03:18:42.555Z,10.93
2022-12-14T03:21:15.376Z,9.50
2022-12-14T03:23:48.604Z,10.67
2022-12-14T03:26:20.918Z,9.93
2022-12-14T03:28:57.661Z,10.83
2022-12-14T03:31:50.103Z,9.50
2022-12-14T03:34:22.219Z,10.80
2022-12-14T03:36:53.719Z,10.93
2022-12-14T03:39:29.732Z,15.87
2022-12-14T03:42:17.769Z,13.80
2022-12-14T03:45:13.955Z,12.10
2022-12-14T03:48:05.035Z,12.13
2022-12-14T03:50:43.611Z,8.53
2022-12-14T03:53:20.594Z,11.77
2022-12-14T03:55:53.405Z,14.23
2022-12-14T03:58:52.473Z,11.73
2022-12-14T04:01:36.473Z,12.20
2022-12-14T04:04:11.019Z,10.13
2022-12-14T04:06:45.162Z,11.37
2022-12-14T04:09:14.471Z,12.50
2022-12-14T04:12:07.068Z,10.80
2022-12-14T04:14:55.851Z,12.40
2022-12-14T04:17:49.062Z,14.43
2022-12-14T04:20:50.157Z,11.80
2022-12-14T04:23:46.964Z,10.63
2022-12-14T04:26:19.416Z,13.17
2022-12-14T04:29:10.292Z,12.03
2022-12-14T04:31:39.645Z,13.93
2022-12-14T04:34:10.931Z,10.80
2022-12-14T04:36:46.690Z,14.33
2022-12-14T04:39:22.333Z,12.77
2022-12-14T04:41:52.181Z,9.57
2022-12-14T04:44:44.578Z,14.07
2022-12-14T04:47:14.818Z,11.93
2022-12-14T04:50:00.723Z,10.23
2022-12-14T04:52:40.324Z,14.60
2022-12-14T04:55:17.120Z,11.93
2022-12-14T04:57:49.435Z,13.27
2022-12-14T05:00:16.694Z,12.83
2022-12-14T05:02:58.952Z,13.27
2022-12-14T05:05:28.527Z,14.00
2022-12-14T05:08:08.034Z,15.80
2022-12-14T05:11:50.121Z,13.37
2022-12-14T05:14:06.864Z,14.07
2022-12-14T05:16:33.350Z,10.83
2022-12-14T05:18:59.876Z,12.07
2022-12-14T05:21:44.882Z,14.53
2022-12-14T05:24:11.303Z,13.87
2022-12-14T05:26:38.133Z,14.17
2022-12-14T05:29:04.606Z,14.90
2022-12-14T05:31:31.445Z,12.90
2022-12-14T05:33:57.987Z,10.90
2022-12-14T05:36:24.618Z,12.73
2022-12-14T05:38:50.963Z,12.67
2022-12-14T05:41:17.357Z,12.80
2022-12-14T05:43:43.729Z,14.60
2022-12-14T05:46:14.166Z,11.93
2022-12-14T05:48:43.709Z,14.43
2022-12-14T05:51:14.453Z,12.17
2022-12-14T05:53:41.093Z,11.37
2022-12-14T05:56:09.785Z,15.00
2022-12-14T05:58:36.866Z,14.10
2022-12-14T06:01:07.591Z,13.67
2022-12-14T06:03:34.096Z,12.67
2022-12-14T06:06:05.895Z,16.33
2022-12-14T06:08:34.990Z,17.63
2022-12-14T06:11:11.980Z,21.00
2022-12-14T06:13:39.651Z,17.33
2022-12-14T06:16:17.321Z,15.53
2022-12-14T06:18:46.077Z,15.50
2022-12-14T06:21:18.008Z,12.20
2022-12-14T06:24:00.355Z,12.73
2022-12-14T06:27:19.986Z,16.20
2022-12-14T06:30:00.891Z,15.38
2022-12-14T06:32:45.044Z,15.40
2022-12-14T06:35:16.034Z,17.10
2022-12-14T06:38:10.050Z,16.87
2022-12-14T06:40:48.574Z,17.20
2022-12-14T06:43:33.293Z,18.50
2022-12-14T06:46:01.843Z,14.83
2022-12-14T06:48:42.925Z,14.27
2022-12-14T06:51:30.390Z,13.60
2022-12-14T06:54:17.489Z,15.73
2022-12-14T06:56:52.302Z,16.23
2022-12-14T07:02:22.973Z,17.23
2022-12-14T07:04:56.265Z,18.43
2022-12-14T07:07:25.373Z,16.17
2022-12-14T07:09:58.546Z,14.50
2022-12-14T07:12:31.300Z,20.37
2022-12-14T07:15:06.068Z,18.97
2022-12-14T07:17:41.218Z,20.37
2022-12-14T07:20:10.515Z,18.13
2022-12-14T07:22:40.944Z,16.50
2022-12-14T07:25:09.873Z,15.50
2022-12-14T07:27:43.335Z,22.63
2022-12-14T07:30:17.739Z,15.97
2022-12-14T07:32:53.733Z,18.73
2022-12-14T07:35:32.168Z,15.70
2022-12-14T07:38:02.057Z,21.40
2022-12-14T07:40:53.886Z,24.50
2022-12-14T07:43:21.738Z,19.53
2022-12-14T07:48:42.142Z,20.07
2022-12-14T07:51:14.815Z,19.97
2022-12-14T07:53:45.032Z,21.20
2022-12-14T07:56:18.526Z,18.70
2022-12-14T07:58:46.082Z,18.53
2022-12-14T08:01:19.239Z,21.20
2022-12-14T08:03:51.479Z,21.50
2022-12-14T08:06:20.985Z,20.70
2022-12-14T08:08:51.870Z,18.07
2022-12-14T08:11:19.823Z,19.20
2022-12-14T08:13:47.328Z,23.43
2022-12-14T08:16:18.099Z,20.13
2022-12-14T08:18:50.718Z,21.03
2022-12-14T08:21:21.361Z,18.90
2022-12-14T08:23:50.002Z,17.97
2022-12-14T08:26:20.701Z,26.77
2022-12-14T08:29:02.182Z,18.30
2022-12-14T08:31:36.471Z,17.93
2022-12-14T08:34:06.663Z,17.93
2022-12-14T08:36:38.164Z,20.17
2022-12-14T08:39:17.123Z,20.70
2022-12-14T08:41:46.999Z,22.40
2022-12-14T08:44:19.863Z,21.57
2022-12-14T08:46:50.594Z,22.87
2022-12-14T08:49:22.605Z,23.80
2022-12-14T08:52:02.503Z,20.13
2022-12-14T08:54:30.239Z,22.50
2022-12-14T08:57:16.660Z,22.23
2022-12-14T09:00:17.835Z,21.67
2022-12-14T09:02:59.959Z,17.53
2022-12-14T09:05:39.182Z,20.17
2022-12-14T09:08:47.231Z,23.73
2022-12-14T09:11:36.797Z,21.33
2022-12-14T09:14:25.749Z,22.63
2022-12-14T09:18:06.895Z,20.13
2022-12-14T09:20:41.711Z,22.23
2022-12-14T09:38:23.784Z,22.10
2022-12-14T09:48:33.097Z,23.58
2022-12-14T09:51:24.343Z,21.23
2022-12-14T09:54:10.509Z,24.07
2022-12-14T09:56:47.719Z,27.00
2022-12-14T09:59:41.852Z,21.00
2022-12-14T10:02:55.747Z,23.10
2022-12-14T10:09:06.993Z,21.33
2022-12-14T10:12:11.838Z,22.57
2022-12-14T10:14:58.310Z,25.50
2022-12-14T10:17:30.365Z,21.17
2022-12-14T10:20:11.734Z,23.40
2022-12-14T10:22:43.949Z,22.73
2022-12-14T10:25:26.925Z,20.23
2022-12-14T10:28:19.234Z,24.03
2022-12-14T10:31:18.161Z,22.67
2022-12-14T10:33:53.628Z,21.37
2022-12-14T10:36:46.469Z,23.10
2022-12-14T10:39:26.267Z,21.00
2022-12-14T10:42:06.146Z,23.20
2022-12-14T10:44:49.506Z,23.43
2022-12-14T10:47:36.312Z,21.73
2022-12-14T10:50:25.293Z,25.43
2022-12-14T10:53:06.017Z,22.67
2022-12-14T10:55:39.868Z,22.30
2022-12-14T10:58:06.720Z,22.33
2022-12-14T11:00:33.101Z,23.50
2022-12-14T11:03:00.953Z,21.00
2022-12-14T11:05:36.961Z,25.30
2022-12-14T11:08:07.277Z,27.53
2022-12-14T11:10:36.036Z,26.83
2022-12-14T11:13:18.980Z,23.50
2022-12-14T11:15:50.870Z,25.00
2022-12-14T11:18:17.313Z,22.57
2022-12-14T11:20:56.472Z,22.37
2022-12-14T11:23:28.111Z,28.57
2022-12-14T11:25:57.671Z,27.40
2022-12-14T11:28:54.972Z,24.67
2022-12-14T11:31:43.573Z,23.23
2022-12-14T11:34:38.169Z,23.33
2022-12-14T11:37:27.795Z,23.67
2022-12-14T11:40:07.081Z,25.20
2022-12-14T11:42:34.028Z,26.23
2022-12-14T11:45:28.554Z,38.47
2022-12-14T11:48:13.616Z,21.63
2022-12-14T11:50:41.572Z,29.17
2022-12-14T11:53:14.696Z,22.97
2022-12-14T11:55:47.622Z,38.70
2022-12-14T11:58:37.367Z,28.40
2022-12-14T12:01:12.967Z,27.80
2022-12-14T12:03:45.076Z,23.60
2022-12-14T12:06:14.483Z,24.30
2022-12-14T12:08:43.580Z,21.93
2022-12-14T12:11:19.632Z,22.97
2022-12-14T12:13:51.786Z,24.40
2022-12-14T12:16:22.460Z,24.40
2022-12-14T12:19:13.119Z,21.80
2022-12-14T12:21:45.045Z,26.27
2022-12-14T12:25:08.680Z,23.80
2022-12-14T12:27:36.666Z,21.73
2022-12-14T12:30:08.265Z,28.50
2022-12-14T12:32:42.721Z,27.50
2022-12-14T12:35:18.192Z,14.57
2022-12-14T12:37:56.075Z,22.03
2022-12-14T12:40:49.216Z,24.13
2022-12-14T12:43:23.879Z,24.57
2022-12-14T12:45:58.695Z,28.60
2022-12-14T12:48:36.129Z,28.07
2022-12-14T12:51:11.681Z,25.93
2022-12-14T12:53:45.119Z,24.07
2022-12-14T12:56:20.381Z,26.20
2022-12-14T12:58:52.908Z,25.00
2022-12-14T13:01:39.397Z,23.33
2022-12-14T13:04:11.167Z,22.97
2022-12-14T13:06:46.488Z,22.00
2022-12-14T13:09:21.957Z,26.83
2022-12-14T13:11:49.099Z,18.23
2022-12-14T13:14:17.249Z,22.23
2022-12-14T13:16:45.715Z,24.40
2022-12-14T13:22:15.384Z,28.20
2022-12-14T13:24:45.748Z,29.43
2022-12-14T13:27:30.924Z,26.50
2022-12-14T13:30:09.537Z,24.20
2022-12-14T13:32:58.567Z,26.77
2022-12-14T13:35:49.563Z,23.80
2022-12-14T13:38:53.141Z,31.87
2022-12-14T13:41:31.496Z,25.20
2022-12-14T13:44:07.812Z,27.03
2022-12-14T13:46:34.542Z,28.93
2022-12-14T13:49:06.337Z,20.37
2022-12-14T13:51:39.691Z,27.43
2022-12-14T13:54:18.947Z,27.37
2022-12-14T13:56:45.923Z,31.48
2022-12-14T13:59:31.223Z,29.47
2022-12-14T14:02:00.767Z,24.23
2022-12-14T14:04:31.183Z,26.40
2022-12-14T14:07:23.658Z,22.90
2022-12-14T14:09:55.858Z,21.53
2022-12-14T14:12:39.206Z,20.37
2022-12-14T14:15:09.999Z,28.73
2022-12-14T14:17:36.407Z,29.80
2022-12-14T14:20:26.776Z,29.57
2022-12-14T14:23:19.191Z,30.93
2022-12-14T14:25:48.833Z,28.47
2022-12-14T14:28:22.746Z,27.13
2022-12-14T14:30:57.951Z,29.27
2022-12-14T14:33:47.272Z,23.90
2022-12-14T14:36:26.205Z,28.37
2022-12-14T14:38:55.010Z,33.73
2022-12-14T14:41:25.321Z,27.87
2022-12-14T14:43:55.262Z,23.97
2022-12-14T14:46:34.438Z,24.80
2022-12-14T14:49:01.101Z,27.60
2022-12-14T14:51:29.953Z,24.37
2022-12-14T14:57:35.707Z,19.47
2022-12-14T15:00:04.586Z,26.03
2022-12-14T15:02:33.409Z,26.00
2022-12-14T15:05:17.998Z,24.93
2022-12-14T15:07:48.250Z,25.70
2022-12-14T15:10:26.799Z,23.87
2022-12-14T15:12:57.077Z,28.40
2022-12-14T15:15:26.605Z,31.00
2022-12-14T15:17:53.020Z,29.37
2022-12-14T15:20:26.812Z,24.57
2022-12-14T15:22:55.896Z,26.60
2022-12-14T15:25:29.459Z,25.40
2022-12-14T15:28:01.404Z,24.50
2022-12-14T15:30:29.435Z,23.70
2022-12-14T15:33:03.984Z,26.60
2022-12-14T15:35:39.444Z,23.07
2022-12-14T15:38:08.544Z,23.60
2022-12-14T15:40:35.447Z,21.27
2022-12-14T15:43:15.819Z,27.77
2022-12-14T15:45:45.710Z,30.47
2022-12-14T15:48:22.873Z,26.40
2022-12-14T15:50:54.479Z,28.10
2022-12-14T15:53:34.289Z,24.63
2022-12-14T15:56:18.108Z,24.00
2022-12-14T15:58:45.144Z,22.00
2022-12-14T16:01:19.526Z,23.37
2022-12-14T16:03:51.831Z,26.10
2022-12-14T16:06:20.333Z,21.30
2022-12-14T16:08:56.655Z,25.73
2022-12-14T16:11:32.562Z,24.43
2022-12-14T16:14:02.785Z,26.17
2022-12-14T16:16:29.594Z,27.43
2022-12-14T16:19:13.889Z,26.80
2022-12-14T16:21:49.561Z,25.80
2022-12-14T16:24:24.961Z,23.17
2022-12-14T16:26:57.126Z,24.83
2022-12-14T16:29:28.554Z,23.87
2022-12-14T16:32:02.620Z,24.53
2022-12-14T16:34:29.635Z,24.90
2022-12-14T16:39:52.418Z,24.80
2022-12-14T16:42:25.745Z,27.13
2022-12-14T16:44:57.378Z,20.07
2022-12-14T16:47:48.962Z,33.07
2022-12-14T16:53:25.143Z,24.10
2022-12-14T16:56:14.223Z,23.27
2022-12-14T16:58:40.782Z,26.00
2022-12-14T17:01:09.233Z,29.17
2022-12-14T17:03:37.446Z,30.90
2022-12-14T17:06:07.147Z,25.23
2022-12-14T17:08:34.416Z,26.30
2022-12-14T17:11:02.125Z,28.67
2022-12-14T17:13:29.062Z,24.60
2022-12-14T17:16:00.020Z,24.07
2022-12-14T17:18:31.438Z,24.03
2022-12-14T17:20:59.222Z,24.33
2022-12-14T17:23:25.980Z,16.93
2022-12-14T17:25:52.422Z,22.23
2022-12-14T17:28:31.120Z,20.90
2022-12-14T17:31:01.556Z,20.33
2022-12-14T17:33:29.891Z,24.27
2022-12-14T17:35:56.642Z,20.33
2022-12-14T17:38:23.723Z,20.90
2022-12-14T17:40:51.309Z,22.77
2022-12-14T17:43:20.949Z,25.63
2022-12-14T17:45:47.879Z,21.53
2022-12-14T17:48:16.327Z,15.93
2022-12-14T17:50:44.801Z,18.83
2022-12-14T17:53:16.054Z,17.87
2022-12-14T17:55:42.450Z,18.93
2022-12-14T17:58:12.297Z,21.13
2022-12-14T18:00:59.035Z,26.27
2022-12-14T18:03:26.100Z,22.53
2022-12-14T18:05:53.147Z,20.27
2022-12-14T18:08:20.917Z,24.30
2022-12-14T18:10:50.754Z,19.07
2022-12-14T18:13:17.503Z,21.63
2022-12-14T18:15:49.673Z,21.03
2022-12-14T18:18:18.909Z,21.20
2022-12-14T18:20:49.616Z,25.47
2022-12-14T18:23:17.493Z,18.00
2022-12-14T18:25:47.878Z,22.23
2022-12-14T18:28:15.103Z,23.00
2022-12-14T18:30:49.621Z,20.83
2022-12-14T18:33:25.490Z,25.33
2022-12-14T18:35:53.710Z,18.53
2022-12-14T18:38:20.541Z,20.83
2022-12-14T18:40:50.179Z,22.80
2022-12-14T18:43:23.439Z,22.57
2022-12-14T18:45:52.110Z,25.07
2022-12-14T18:48:18.674Z,21.53
2022-12-14T18:50:45.271Z,22.80
2022-12-14T18:53:22.270Z,19.37
2022-12-14T18:55:49.500Z,18.73
2022-12-14T18:58:21.826Z,18.33
2022-12-14T19:00:51.533Z,25.57
2022-12-14T19:03:19.040Z,23.10
2022-12-14T19:05:45.518Z,25.40
2022-12-14T19:08:12.299Z,30.97
2022-12-14T19:10:42.717Z,18.50
2022-12-14T19:13:24.786Z,23.63
2022-12-14T19:15:51.813Z,20.53
2022-12-14T19:18:18.875Z,20.20
2022-12-14T19:20:45.330Z,21.80
2022-12-14T19:23:17.593Z,21.57
2022-12-14T19:25:44.627Z,24.47
2022-12-14T19:28:32.515Z,22.23
2022-12-14T19:30:59.081Z,20.10
2022-12-14T19:33:26.792Z,23.70
2022-12-14T19:35:53.743Z,24.50
2022-12-14T19:38:20.294Z,23.23
2022-12-14T19:41:02.624Z,23.40
2022-12-14T19:43:29.994Z,16.80
2022-12-14T19:45:56.882Z,22.17
2022-12-14T19:48:23.612Z,22.50
2022-12-14T19:50:50.156Z,25.30
2022-12-14T19:53:23.046Z,24.10
2022-12-14T19:55:53.203Z,25.00
2022-12-14T19:58:22.023Z,22.27
2022-12-14T20:00:49.867Z,19.13
2022-12-14T20:03:16.594Z,24.93
2022-12-14T20:05:55.004Z,22.50
2022-12-14T20:08:22.258Z,24.40
2022-12-14T20:10:49.594Z,23.00
2022-12-14T20:13:16.069Z,26.40
2022-12-14T20:15:48.451Z,24.17
2022-12-14T20:18:14.924Z,25.23
2022-12-14T20:20:41.475Z,23.97
2022-12-14T20:23:07.982Z,23.90
2022-12-14T20:25:34.502Z,23.33
2022-12-14T20:28:00.870Z,24.67
2022-12-14T20:30:27.265Z,25.47
2022-12-14T20:32:53.711Z,20.53
2022-12-14T20:35:20.078Z,27.47
2022-12-14T20:37:46.460Z,26.83
2022-12-14T20:40:13.660Z,26.03
2022-12-14T20:42:40.112Z,26.33
2022-12-14T20:45:07.623Z,23.43
2022-12-14T20:47:34.525Z,24.50
2022-12-14T20:50:00.933Z,20.73
2022-12-14T20:52:27.627Z,30.60
2022-12-14T20:54:54.076Z,26.57
2022-12-14T20:57:20.483Z,27.57
2022-12-14T20:59:49.908Z,30.37
2022-12-14T21:02:19.145Z,30.30
2022-12-14T21:04:45.614Z,25.37
2022-12-14T21:07:12.422Z,27.07
2022-12-14T21:09:38.790Z,22.87
2022-12-14T21:12:23.370Z,29.37
2022-12-14T21:14:55.411Z,21.07
2022-12-14T21:17:24.469Z,27.13
2022-12-14T21:19:51.475Z,25.63
2022-12-14T21:22:24.077Z,29.50
2022-12-14T21:25:03.028Z,37.03
2022-12-14T21:27:30.711Z,32.33
2022-12-14T21:29:57.240Z,35.67
2022-12-14T21:32:23.685Z,26.10
2022-12-14T21:34:50.199Z,35.00
2022-12-14T21:37:17.171Z,27.20
2022-12-14T21:39:51.860Z,28.60
2022-12-14T21:42:20.934Z,27.20
2022-12-14T21:44:49.622Z,24.23
2022-12-14T21:47:17.348Z,22.67
2022-12-14T21:49:44.817Z,23.83
2022-12-14T21:52:17.132Z,28.37
2022-12-14T21:54:43.849Z,26.67
2022-12-14T21:57:37.960Z,25.37
2022-12-14T22:00:06.364Z,32.47
2022-12-14T22:02:32.914Z,27.63
2022-12-14T22:04:59.402Z,26.83
2022-12-14T22:07:30.648Z,29.27
2022-12-14T22:09:57.118Z,29.10
2022-12-14T22:12:23.663Z,25.43
2022-12-14T22:14:50.228Z,29.80
2022-12-14T22:17:16.658Z,23.40
2022-12-14T22:19:43.395Z,26.70
2022-12-14T22:22:16.519Z,26.47
2022-12-14T22:24:43.784Z,27.60
2022-12-14T22:27:11.955Z,29.17
2022-12-14T22:29:38.551Z,28.97
2022-12-14T22:32:05.480Z,29.03
2022-12-14T22:34:31.966Z,25.67
2022-12-14T22:36:58.494Z,32.43
2022-12-14T22:39:24.917Z,31.20
2022-12-14T22:41:51.368Z,27.97
2022-12-14T22:44:17.747Z,28.97
2022-12-14T22:46:44.163Z,24.80
2022-12-14T22:49:16.196Z,27.23
2022-12-14T22:51:42.608Z,24.40
2022-12-14T22:54:14.742Z,27.53
2022-12-14T22:56:47.102Z,26.87
2022-12-14T22:59:26.168Z,23.77
2022-12-14T23:01:54.050Z,23.80
2022-12-14T23:04:24.936Z,26.40
2022-12-14T23:06:53.384Z,26.57
2022-12-14T23:09:44.966Z,25.93
2022-12-14T23:12:30.764Z,30.83
2022-12-14T23:15:17.033Z,26.77
2022-12-14T23:18:05.942Z,26.93
2022-12-14T23:20:54.141Z,26.43
2022-12-14T23:23:42.989Z,29.00
2022-12-14T23:26:28.981Z,29.33
2022-12-14T23:29:14.714Z,26.53
2022-12-14T23:32:04.009Z,29.70
2022-12-14T23:34:55.449Z,28.50
2022-12-14T23:37:49.367Z,26.47
2022-12-14T23:40:38.840Z,28.70
2022-12-14T23:43:33.637Z,23.50
2022-12-14T23:46:24.607Z,24.87
2022-12-14T23:49:15.756Z,23.53
2022-12-14T23:52:08.241Z,27.40
2022-12-14T23:54:53.052Z,28.10
2022-12-14T23:57:37.948Z,28.60
